sensor_id;sensor_type;location;lat;lon;timestamp;temperature;humidity
18335;DHT22;9293;49.524;10.964;2023-04-29T00:01:35;11.00;99.90
18335;DHT22;9293;49.524;10.964;2023-04-29T00:04:03;11.00;99.90
18335;DHT22;9293;49.524;10.964;2023-04-29T00:06:32;11.00;99.90
18335;DHT22;9293;49.524;10.964;2023-04-29T00:09:00;11.00;99.90
18335;DHT22;9293;49.524;10.964;2023-04-29T00:11:28;11.00;99.90
18335;DHT22;9293;49.524;10.964;2023-04-29T00:13:56;10.90;99.90
18335;DHT22;9293;49.524;10.964;2023-04-29T00:16:24;10.80;99.90
18335;DHT22;9293;49.524;10.964;2023-04-29T00:18:55;10.70;99.90
18335;DHT22;9293;49.524;10.964;2023-04-29T00:21:26;10.60;99.90
18335;DHT22;9293;49.524;10.964;2023-04-29T00:23:55;10.60;99.90
18335;DHT22;9293;49.524;10.964;2023-04-29T00:26:23;10.70;99.90
18335;DHT22;9293;49.524;10.964;2023-04-29T00:28:51;10.70;99.90
18335;DHT22;9293;49.524;10.964;2023-04-29T00:31:20;10.70;99.90
18335;DHT22;9293;49.524;10.964;2023-04-29T00:33:48;10.70;99.90
18335;DHT22;9293;49.524;10.964;2023-04-29T00:36:16;10.60;99.90
18335;DHT22;9293;49.524;10.964;2023-04-29T00:38:45;10.60;99.90
18335;DHT22;9293;49.524;10.964;2023-04-29T00:41:12;10.50;99.90
18335;DHT22;9293;49.524;10.964;2023-04-29T00:43:41;10.60;99.90
18335;DHT22;9293;49.524;10.964;2023-04-29T00:46:09;10.60;99.90
18335;DHT22;9293;49.524;10.964;2023-04-29T00:48:38;10.60;99.90
18335;DHT22;9293;49.524;10.964;2023-04-29T00:51:06;10.60;99.90
18335;DHT22;9293;49.524;10.964;2023-04-29T00:53:34;10.70;99.90
18335;DHT22;9293;49.524;10.964;2023-04-29T00:56:03;10.70;99.90
18335;DHT22;9293;49.524;10.964;2023-04-29T00:58:31;10.70;99.90
18335;DHT22;9293;49.524;10.964;2023-04-29T01:01:02;10.70;99.90
18335;DHT22;9293;49.524;10.964;2023-04-29T01:03:30;10.70;99.90
18335;DHT22;9293;49.524;10.964;2023-04-29T01:06:06;10.60;99.90
18335;DHT22;9293;49.524;10.964;2023-04-29T01:11:23;10.40;99.90
18335;DHT22;9293;49.524;10.964;2023-04-29T01:13:57;10.20;99.90
18335;DHT22;9293;49.524;10.964;2023-04-29T01:16:47;10.20;99.90
18335;DHT22;9293;49.524;10.964;2023-04-29T01:21:49;10.10;99.90
18335;DHT22;9293;49.524;10.964;2023-04-29T01:33:50;10.00;99.90
18335;DHT22;9293;49.524;10.964;2023-04-29T01:39:08;9.70;99.90
18335;DHT22;9293;49.524;10.964;2023-04-29T01:44:17;9.70;99.90
18335;DHT22;9293;49.524;10.964;2023-04-29T01:46:51;9.70;99.90
18335;DHT22;9293;49.524;10.964;2023-04-29T01:49:26;9.70;99.90
18335;DHT22;9293;49.524;10.964;2023-04-29T01:51:54;9.70;99.90
18335;DHT22;9293;49.524;10.964;2023-04-29T01:54:23;9.60;99.90
18335;DHT22;9293;49.524;10.964;2023-04-29T01:56:52;9.50;99.90
18335;DHT22;9293;49.524;10.964;2023-04-29T01:59:29;9.50;99.90
18335;DHT22;9293;49.524;10.964;2023-04-29T02:02:29;9.50;99.90
18335;DHT22;9293;49.524;10.964;2023-04-29T02:05:08;9.50;99.90
18335;DHT22;9293;49.524;10.964;2023-04-29T02:07:43;9.50;99.90
18335;DHT22;9293;49.524;10.964;2023-04-29T02:10:11;9.50;99.90
18335;DHT22;9293;49.524;10.964;2023-04-29T02:12:42;9.60;99.90
18335;DHT22;9293;49.524;10.964;2023-04-29T02:15:10;9.70;99.90
18335;DHT22;9293;49.524;10.964;2023-04-29T02:17:39;9.80;99.90
18335;DHT22;9293;49.524;10.964;2023-04-29T02:20:07;9.90;99.90
18335;DHT22;9293;49.524;10.964;2023-04-29T02:22:36;9.80;99.90
18335;DHT22;9293;49.524;10.964;2023-04-29T02:25:04;9.80;99.90
18335;DHT22;9293;49.524;10.964;2023-04-29T02:27:36;9.80;99.90
18335;DHT22;9293;49.524;10.964;2023-04-29T02:30:05;9.80;99.90
18335;DHT22;9293;49.524;10.964;2023-04-29T02:32:33;9.70;99.90
18335;DHT22;9293;49.524;10.964;2023-04-29T02:35:02;9.60;99.90
18335;DHT22;9293;49.524;10.964;2023-04-29T02:37:30;9.60;99.90
18335;DHT22;9293;49.524;10.964;2023-04-29T02:39:58;9.50;99.90
18335;DHT22;9293;49.524;10.964;2023-04-29T02:42:26;9.40;99.90
18335;DHT22;9293;49.524;10.964;2023-04-29T02:44:55;9.40;99.90
18335;DHT22;9293;49.524;10.964;2023-04-29T02:47:23;9.40;99.90
18335;DHT22;9293;49.524;10.964;2023-04-29T02:49:52;9.30;99.90
18335;DHT22;9293;49.524;10.964;2023-04-29T02:52:20;9.20;99.90
18335;DHT22;9293;49.524;10.964;2023-04-29T02:54:48;9.10;99.90
18335;DHT22;9293;49.524;10.964;2023-04-29T02:57:16;9.10;99.90
18335;DHT22;9293;49.524;10.964;2023-04-29T02:59:45;9.10;99.90
18335;DHT22;9293;49.524;10.964;2023-04-29T03:02:13;9.10;99.90
18335;DHT22;9293;49.524;10.964;2023-04-29T03:04:44;9.10;99.90
18335;DHT22;9293;49.524;10.964;2023-04-29T03:07:14;9.10;99.90
18335;DHT22;9293;49.524;10.964;2023-04-29T03:09:44;9.10;99.90
18335;DHT22;9293;49.524;10.964;2023-04-29T03:12:12;9.20;99.90
18335;DHT22;9293;49.524;10.964;2023-04-29T03:14:41;9.20;99.90
18335;DHT22;9293;49.524;10.964;2023-04-29T03:17:09;9.30;99.90
18335;DHT22;9293;49.524;10.964;2023-04-29T03:19:37;9.30;99.90
18335;DHT22;9293;49.524;10.964;2023-04-29T03:22:06;9.30;99.90
18335;DHT22;9293;49.524;10.964;2023-04-29T03:24:41;9.30;99.90
18335;DHT22;9293;49.524;10.964;2023-04-29T03:27:09;9.40;99.90
18335;DHT22;9293;49.524;10.964;2023-04-29T03:29:38;9.40;99.90
18335;DHT22;9293;49.524;10.964;2023-04-29T03:32:06;9.50;99.90
18335;DHT22;9293;49.524;10.964;2023-04-29T03:34:34;9.50;99.90
18335;DHT22;9293;49.524;10.964;2023-04-29T03:37:23;9.60;99.90
18335;DHT22;9293;49.524;10.964;2023-04-29T03:39:59;9.70;99.90
18335;DHT22;9293;49.524;10.964;2023-04-29T03:42:27;9.80;99.90
18335;DHT22;9293;49.524;10.964;2023-04-29T03:44:55;9.90;99.90
18335;DHT22;9293;49.524;10.964;2023-04-29T03:47:23;9.90;99.90
18335;DHT22;9293;49.524;10.964;2023-04-29T03:49:51;9.90;99.90
18335;DHT22;9293;49.524;10.964;2023-04-29T03:52:20;9.90;99.90
18335;DHT22;9293;49.524;10.964;2023-04-29T03:54:52;9.90;99.90
18335;DHT22;9293;49.524;10.964;2023-04-29T03:57:23;9.90;99.90
18335;DHT22;9293;49.524;10.964;2023-04-29T03:59:53;10.00;99.90
18335;DHT22;9293;49.524;10.964;2023-04-29T04:02:22;10.00;99.90
18335;DHT22;9293;49.524;10.964;2023-04-29T04:04:51;10.00;99.90
18335;DHT22;9293;49.524;10.964;2023-04-29T04:07:19;10.00;99.90
18335;DHT22;9293;49.524;10.964;2023-04-29T04:10:08;10.00;99.90
18335;DHT22;9293;49.524;10.964;2023-04-29T04:12:36;10.00;99.90
18335;DHT22;9293;49.524;10.964;2023-04-29T04:15:04;10.00;99.90
18335;DHT22;9293;49.524;10.964;2023-04-29T04:17:32;10.00;99.90
18335;DHT22;9293;49.524;10.964;2023-04-29T04:20:00;10.00;99.90
18335;DHT22;9293;49.524;10.964;2023-04-29T04:22:29;10.10;99.90
18335;DHT22;9293;49.524;10.964;2023-04-29T04:25:11;10.10;99.90
18335;DHT22;9293;49.524;10.964;2023-04-29T04:27:42;10.10;99.90
18335;DHT22;9293;49.524;10.964;2023-04-29T04:30:20;10.10;99.90
18335;DHT22;9293;49.524;10.964;2023-04-29T04:32:48;10.10;99.90
18335;DHT22;9293;49.524;10.964;2023-04-29T04:35:16;10.20;99.90
18335;DHT22;9293;49.524;10.964;2023-04-29T04:37:45;10.20;99.90
18335;DHT22;9293;49.524;10.964;2023-04-29T04:40:13;10.20;99.90
18335;DHT22;9293;49.524;10.964;2023-04-29T04:43:01;10.20;99.90
18335;DHT22;9293;49.524;10.964;2023-04-29T04:45:30;10.20;99.90
18335;DHT22;9293;49.524;10.964;2023-04-29T04:48:01;10.30;99.90
18335;DHT22;9293;49.524;10.964;2023-04-29T04:50:32;10.20;99.90
18335;DHT22;9293;49.524;10.964;2023-04-29T04:53:00;10.30;99.90
18335;DHT22;9293;49.524;10.964;2023-04-29T04:55:41;10.30;99.90
18335;DHT22;9293;49.524;10.964;2023-04-29T04:58:09;10.40;99.90
18335;DHT22;9293;49.524;10.964;2023-04-29T05:00:42;10.40;99.90
18335;DHT22;9293;49.524;10.964;2023-04-29T05:03:11;10.40;99.90
18335;DHT22;9293;49.524;10.964;2023-04-29T05:05:39;10.30;99.90
18335;DHT22;9293;49.524;10.964;2023-04-29T05:08:10;10.40;99.90
18335;DHT22;9293;49.524;10.964;2023-04-29T05:10:42;10.50;99.90
18335;DHT22;9293;49.524;10.964;2023-04-29T05:13:11;10.60;99.90
18335;DHT22;9293;49.524;10.964;2023-04-29T05:15:42;10.60;99.90
18335;DHT22;9293;49.524;10.964;2023-04-29T05:18:10;10.50;99.90
18335;DHT22;9293;49.524;10.964;2023-04-29T05:20:41;10.60;99.90
18335;DHT22;9293;49.524;10.964;2023-04-29T05:23:09;10.70;99.90
18335;DHT22;9293;49.524;10.964;2023-04-29T05:25:39;10.70;99.90
18335;DHT22;9293;49.524;10.964;2023-04-29T05:28:07;10.70;99.90
18335;DHT22;9293;49.524;10.964;2023-04-29T05:30:39;10.70;99.90
18335;DHT22;9293;49.524;10.964;2023-04-29T05:33:07;10.80;99.90
18335;DHT22;9293;49.524;10.964;2023-04-29T05:35:35;10.90;99.90
18335;DHT22;9293;49.524;10.964;2023-04-29T05:38:04;10.90;99.90
18335;DHT22;9293;49.524;10.964;2023-04-29T05:40:38;11.00;99.90
18335;DHT22;9293;49.524;10.964;2023-04-29T05:43:25;11.10;99.90
18335;DHT22;9293;49.524;10.964;2023-04-29T05:45:54;11.20;99.90
18335;DHT22;9293;49.524;10.964;2023-04-29T05:48:23;11.20;99.90
18335;DHT22;9293;49.524;10.964;2023-04-29T05:50:51;11.30;99.90
18335;DHT22;9293;49.524;10.964;2023-04-29T05:53:24;11.30;99.90
18335;DHT22;9293;49.524;10.964;2023-04-29T05:55:54;11.40;99.90
18335;DHT22;9293;49.524;10.964;2023-04-29T05:58:24;11.50;99.90
18335;DHT22;9293;49.524;10.964;2023-04-29T06:00:53;11.60;99.90
18335;DHT22;9293;49.524;10.964;2023-04-29T06:03:24;11.60;99.90
18335;DHT22;9293;49.524;10.964;2023-04-29T06:06:13;11.70;99.90
18335;DHT22;9293;49.524;10.964;2023-04-29T06:09:16;11.80;99.90
18335;DHT22;9293;49.524;10.964;2023-04-29T06:11:55;11.90;99.90
18335;DHT22;9293;49.524;10.964;2023-04-29T06:14:24;11.90;99.90
18335;DHT22;9293;49.524;10.964;2023-04-29T06:16:52;12.00;99.90
18335;DHT22;9293;49.524;10.964;2023-04-29T06:19:21;12.00;99.90
18335;DHT22;9293;49.524;10.964;2023-04-29T06:21:49;12.10;99.90
18335;DHT22;9293;49.524;10.964;2023-04-29T06:24:17;12.20;99.90
18335;DHT22;9293;49.524;10.964;2023-04-29T06:26:45;12.30;99.90
18335;DHT22;9293;49.524;10.964;2023-04-29T06:29:14;12.30;99.90
18335;DHT22;9293;49.524;10.964;2023-04-29T06:31:43;12.40;99.90
18335;DHT22;9293;49.524;10.964;2023-04-29T06:34:11;12.50;99.90
18335;DHT22;9293;49.524;10.964;2023-04-29T06:37:05;12.60;99.90
18335;DHT22;9293;49.524;10.964;2023-04-29T06:39:59;12.70;99.90
18335;DHT22;9293;49.524;10.964;2023-04-29T06:42:50;12.80;99.90
18335;DHT22;9293;49.524;10.964;2023-04-29T06:45:44;12.90;99.90
18335;DHT22;9293;49.524;10.964;2023-04-29T06:48:20;13.00;99.90
18335;DHT22;9293;49.524;10.964;2023-04-29T06:50:49;13.10;99.90
18335;DHT22;9293;49.524;10.964;2023-04-29T06:53:18;13.10;99.90
18335;DHT22;9293;49.524;10.964;2023-04-29T06:55:46;13.10;99.90
18335;DHT22;9293;49.524;10.964;2023-04-29T06:58:14;13.20;99.90
18335;DHT22;9293;49.524;10.964;2023-04-29T07:00:43;13.20;99.90
18335;DHT22;9293;49.524;10.964;2023-04-29T07:03:11;13.30;99.90
18335;DHT22;9293;49.524;10.964;2023-04-29T07:05:43;13.40;99.90
18335;DHT22;9293;49.524;10.964;2023-04-29T07:08:13;13.30;99.90
18335;DHT22;9293;49.524;10.964;2023-04-29T07:10:41;13.40;99.90
18335;DHT22;9293;49.524;10.964;2023-04-29T07:13:09;13.50;99.90
18335;DHT22;9293;49.524;10.964;2023-04-29T07:15:37;13.60;99.90
18335;DHT22;9293;49.524;10.964;2023-04-29T07:18:05;13.60;99.90
18335;DHT22;9293;49.524;10.964;2023-04-29T07:20:35;13.50;99.90
18335;DHT22;9293;49.524;10.964;2023-04-29T07:23:03;13.40;99.90
18335;DHT22;9293;49.524;10.964;2023-04-29T07:25:32;13.40;99.90
18335;DHT22;9293;49.524;10.964;2023-04-29T07:28:01;13.40;99.90
18335;DHT22;9293;49.524;10.964;2023-04-29T07:30:29;13.50;99.90
18335;DHT22;9293;49.524;10.964;2023-04-29T07:32:57;13.50;99.90
18335;DHT22;9293;49.524;10.964;2023-04-29T07:35:26;13.50;99.90
18335;DHT22;9293;49.524;10.964;2023-04-29T07:37:54;13.60;99.90
18335;DHT22;9293;49.524;10.964;2023-04-29T07:40:24;13.70;99.90
18335;DHT22;9293;49.524;10.964;2023-04-29T07:42:56;13.70;99.90
18335;DHT22;9293;49.524;10.964;2023-04-29T07:45:24;13.70;99.90
18335;DHT22;9293;49.524;10.964;2023-04-29T07:47:53;13.80;99.90
18335;DHT22;9293;49.524;10.964;2023-04-29T07:50:21;13.80;99.90
18335;DHT22;9293;49.524;10.964;2023-04-29T07:52:50;13.90;99.90
18335;DHT22;9293;49.524;10.964;2023-04-29T07:55:22;14.10;99.90
18335;DHT22;9293;49.524;10.964;2023-04-29T07:57:51;14.30;99.90
18335;DHT22;9293;49.524;10.964;2023-04-29T08:00:19;14.50;99.90
18335;DHT22;9293;49.524;10.964;2023-04-29T08:02:52;14.70;99.90
18335;DHT22;9293;49.524;10.964;2023-04-29T08:05:21;14.80;99.90
18335;DHT22;9293;49.524;10.964;2023-04-29T08:07:51;15.00;99.90
18335;DHT22;9293;49.524;10.964;2023-04-29T08:10:19;15.10;99.90
18335;DHT22;9293;49.524;10.964;2023-04-29T08:12:53;15.10;99.90
18335;DHT22;9293;49.524;10.964;2023-04-29T08:15:21;15.10;99.90
18335;DHT22;9293;49.524;10.964;2023-04-29T08:17:49;15.00;99.90
18335;DHT22;9293;49.524;10.964;2023-04-29T08:20:17;14.80;99.90
18335;DHT22;9293;49.524;10.964;2023-04-29T08:22:46;14.80;99.90
18335;DHT22;9293;49.524;10.964;2023-04-29T08:25:17;14.70;99.90
18335;DHT22;9293;49.524;10.964;2023-04-29T08:27:46;14.60;99.90
18335;DHT22;9293;49.524;10.964;2023-04-29T08:30:14;14.60;99.90
18335;DHT22;9293;49.524;10.964;2023-04-29T08:32:45;14.50;99.90
18335;DHT22;9293;49.524;10.964;2023-04-29T08:35:14;14.50;99.90
18335;DHT22;9293;49.524;10.964;2023-04-29T08:37:42;14.50;99.90
18335;DHT22;9293;49.524;10.964;2023-04-29T08:40:10;14.50;99.90
18335;DHT22;9293;49.524;10.964;2023-04-29T08:42:38;14.50;99.90
18335;DHT22;9293;49.524;10.964;2023-04-29T08:45:06;14.50;99.90
18335;DHT22;9293;49.524;10.964;2023-04-29T08:47:35;14.40;99.90
18335;DHT22;9293;49.524;10.964;2023-04-29T08:50:04;14.40;99.90
18335;DHT22;9293;49.524;10.964;2023-04-29T08:52:32;14.40;99.90
18335;DHT22;9293;49.524;10.964;2023-04-29T08:55:00;14.40;99.90
18335;DHT22;9293;49.524;10.964;2023-04-29T08:57:29;14.40;99.90
18335;DHT22;9293;49.524;10.964;2023-04-29T09:00:06;14.50;99.90
18335;DHT22;9293;49.524;10.964;2023-04-29T09:02:51;14.50;99.90
18335;DHT22;9293;49.524;10.964;2023-04-29T09:05:20;14.50;99.90
18335;DHT22;9293;49.524;10.964;2023-04-29T09:07:49;14.50;99.90
18335;DHT22;9293;49.524;10.964;2023-04-29T09:10:18;14.60;99.90
18335;DHT22;9293;49.524;10.964;2023-04-29T09:12:46;14.70;99.90
18335;DHT22;9293;49.524;10.964;2023-04-29T09:15:15;14.70;99.90
18335;DHT22;9293;49.524;10.964;2023-04-29T09:17:43;14.90;99.90
18335;DHT22;9293;49.524;10.964;2023-04-29T09:20:34;14.80;99.90
18335;DHT22;9293;49.524;10.964;2023-04-29T09:23:01;14.90;99.90
18335;DHT22;9293;49.524;10.964;2023-04-29T09:25:30;15.20;99.90
18335;DHT22;9293;49.524;10.964;2023-04-29T09:27:59;15.30;99.90
18335;DHT22;9293;49.524;10.964;2023-04-29T09:30:44;15.60;99.90
18335;DHT22;9293;49.524;10.964;2023-04-29T09:33:12;15.80;99.90
18335;DHT22;9293;49.524;10.964;2023-04-29T09:35:42;16.20;99.90
18335;DHT22;9293;49.524;10.964;2023-04-29T09:38:11;16.50;99.90
18335;DHT22;9293;49.524;10.964;2023-04-29T09:40:39;16.70;99.90
18335;DHT22;9293;49.524;10.964;2023-04-29T09:43:24;16.80;99.90
18335;DHT22;9293;49.524;10.964;2023-04-29T09:45:53;16.80;99.90
18335;DHT22;9293;49.524;10.964;2023-04-29T09:48:21;16.90;99.90
18335;DHT22;9293;49.524;10.964;2023-04-29T09:51:00;16.90;99.90
18335;DHT22;9293;49.524;10.964;2023-04-29T09:53:32;17.10;99.90
18335;DHT22;9293;49.524;10.964;2023-04-29T09:56:05;17.30;99.90
18335;DHT22;9293;49.524;10.964;2023-04-29T09:58:34;17.40;99.90
18335;DHT22;9293;49.524;10.964;2023-04-29T10:01:06;17.20;99.90
18335;DHT22;9293;49.524;10.964;2023-04-29T10:03:34;17.20;99.90
18335;DHT22;9293;49.524;10.964;2023-04-29T10:06:05;17.30;99.90
18335;DHT22;9293;49.524;10.964;2023-04-29T10:08:33;17.30;99.90
18335;DHT22;9293;49.524;10.964;2023-04-29T10:11:02;17.50;99.90
18335;DHT22;9293;49.524;10.964;2023-04-29T10:13:30;17.50;99.90
18335;DHT22;9293;49.524;10.964;2023-04-29T10:18:47;17.50;99.90
18335;DHT22;9293;49.524;10.964;2023-04-29T10:21:16;17.40;99.90
18335;DHT22;9293;49.524;10.964;2023-04-29T10:23:45;17.30;99.90
18335;DHT22;9293;49.524;10.964;2023-04-29T10:26:13;17.20;99.90
18335;DHT22;9293;49.524;10.964;2023-04-29T10:28:42;17.10;99.90
18335;DHT22;9293;49.524;10.964;2023-04-29T10:31:10;17.30;99.90
18335;DHT22;9293;49.524;10.964;2023-04-29T10:33:40;17.30;99.90
18335;DHT22;9293;49.524;10.964;2023-04-29T10:36:11;17.00;99.90
18335;DHT22;9293;49.524;10.964;2023-04-29T10:38:40;17.00;99.90
18335;DHT22;9293;49.524;10.964;2023-04-29T10:41:12;17.00;99.90
18335;DHT22;9293;49.524;10.964;2023-04-29T10:43:48;16.90;99.90
18335;DHT22;9293;49.524;10.964;2023-04-29T10:48:44;16.90;99.90
18335;DHT22;9293;49.524;10.964;2023-04-29T10:51:17;16.90;99.90
18335;DHT22;9293;49.524;10.964;2023-04-29T10:54:12;16.80;99.90
18335;DHT22;9293;49.524;10.964;2023-04-29T10:56:47;16.80;99.90
18335;DHT22;9293;49.524;10.964;2023-04-29T10:59:19;16.70;99.90
18335;DHT22;9293;49.524;10.964;2023-04-29T11:01:51;16.60;99.90
18335;DHT22;9293;49.524;10.964;2023-04-29T11:04:20;16.50;99.90
18335;DHT22;9293;49.524;10.964;2023-04-29T11:06:51;16.50;99.90
18335;DHT22;9293;49.524;10.964;2023-04-29T11:09:20;16.40;99.90
18335;DHT22;9293;49.524;10.964;2023-04-29T11:12:00;16.50;99.90
18335;DHT22;9293;49.524;10.964;2023-04-29T11:17:15;16.60;99.90
18335;DHT22;9293;49.524;10.964;2023-04-29T11:19:44;16.70;99.90
18335;DHT22;9293;49.524;10.964;2023-04-29T11:22:27;16.80;99.90
18335;DHT22;9293;49.524;10.964;2023-04-29T11:25:00;16.90;99.90
18335;DHT22;9293;49.524;10.964;2023-04-29T11:27:30;16.80;99.90
18335;DHT22;9293;49.524;10.964;2023-04-29T11:29:59;16.70;99.90
18335;DHT22;9293;49.524;10.964;2023-04-29T11:32:29;16.70;99.90
18335;DHT22;9293;49.524;10.964;2023-04-29T11:35:10;16.70;99.90
18335;DHT22;9293;49.524;10.964;2023-04-29T11:37:42;16.60;99.90
18335;DHT22;9293;49.524;10.964;2023-04-29T11:40:11;16.50;99.90
18335;DHT22;9293;49.524;10.964;2023-04-29T11:42:43;16.40;99.90
18335;DHT22;9293;49.524;10.964;2023-04-29T11:45:12;16.30;99.90
18335;DHT22;9293;49.524;10.964;2023-04-29T11:47:42;16.30;99.90
18335;DHT22;9293;49.524;10.964;2023-04-29T11:50:12;16.20;99.90
18335;DHT22;9293;49.524;10.964;2023-04-29T11:52:43;16.20;99.90
18335;DHT22;9293;49.524;10.964;2023-04-29T11:55:13;16.10;99.90
18335;DHT22;9293;49.524;10.964;2023-04-29T11:57:41;16.00;99.90
18335;DHT22;9293;49.524;10.964;2023-04-29T12:00:10;15.90;99.90
18335;DHT22;9293;49.524;10.964;2023-04-29T12:02:44;15.90;99.90
18335;DHT22;9293;49.524;10.964;2023-04-29T12:05:13;16.00;99.90
18335;DHT22;9293;49.524;10.964;2023-04-29T12:07:44;16.00;99.90
18335;DHT22;9293;49.524;10.964;2023-04-29T12:10:12;15.90;99.90
18335;DHT22;9293;49.524;10.964;2023-04-29T12:12:40;15.90;99.90
18335;DHT22;9293;49.524;10.964;2023-04-29T12:15:10;15.90;99.90
18335;DHT22;9293;49.524;10.964;2023-04-29T12:17:39;15.90;99.90
18335;DHT22;9293;49.524;10.964;2023-04-29T12:20:08;15.80;99.90
18335;DHT22;9293;49.524;10.964;2023-04-29T12:22:37;15.70;99.90
18335;DHT22;9293;49.524;10.964;2023-04-29T12:25:06;15.70;99.90
18335;DHT22;9293;49.524;10.964;2023-04-29T12:27:35;15.80;99.90
18335;DHT22;9293;49.524;10.964;2023-04-29T12:30:07;15.70;99.90
18335;DHT22;9293;49.524;10.964;2023-04-29T12:32:36;15.70;99.90
18335;DHT22;9293;49.524;10.964;2023-04-29T12:35:05;15.70;99.90
18335;DHT22;9293;49.524;10.964;2023-04-29T12:37:49;15.70;99.90
18335;DHT22;9293;49.524;10.964;2023-04-29T12:40:18;15.70;99.90
18335;DHT22;9293;49.524;10.964;2023-04-29T12:42:47;15.70;99.90
18335;DHT22;9293;49.524;10.964;2023-04-29T12:45:31;15.60;99.90
18335;DHT22;9293;49.524;10.964;2023-04-29T12:48:03;15.50;99.90
18335;DHT22;9293;49.524;10.964;2023-04-29T12:50:43;15.50;99.90
18335;DHT22;9293;49.524;10.964;2023-04-29T12:53:18;15.50;99.90
18335;DHT22;9293;49.524;10.964;2023-04-29T12:55:47;15.60;99.90
18335;DHT22;9293;49.524;10.964;2023-04-29T12:58:15;15.50;99.90
18335;DHT22;9293;49.524;10.964;2023-04-29T13:00:43;15.50;99.90
18335;DHT22;9293;49.524;10.964;2023-04-29T13:03:11;15.60;99.90
18335;DHT22;9293;49.524;10.964;2023-04-29T13:05:40;15.80;99.90
18335;DHT22;9293;49.524;10.964;2023-04-29T13:08:08;15.90;99.90
18335;DHT22;9293;49.524;10.964;2023-04-29T13:10:36;16.00;99.90
18335;DHT22;9293;49.524;10.964;2023-04-29T13:13:04;16.10;99.90
18335;DHT22;9293;49.524;10.964;2023-04-29T13:15:35;16.10;99.90
18335;DHT22;9293;49.524;10.964;2023-04-29T13:18:10;16.10;99.90
18335;DHT22;9293;49.524;10.964;2023-04-29T13:20:41;16.10;99.90
18335;DHT22;9293;49.524;10.964;2023-04-29T13:23:09;16.10;99.90
18335;DHT22;9293;49.524;10.964;2023-04-29T13:25:38;16.20;99.90
18335;DHT22;9293;49.524;10.964;2023-04-29T13:28:06;16.20;99.90
18335;DHT22;9293;49.524;10.964;2023-04-29T13:30:35;16.30;99.90
18335;DHT22;9293;49.524;10.964;2023-04-29T13:33:03;16.30;99.90
18335;DHT22;9293;49.524;10.964;2023-04-29T13:35:38;16.50;99.90
18335;DHT22;9293;49.524;10.964;2023-04-29T13:38:08;16.40;99.90
18335;DHT22;9293;49.524;10.964;2023-04-29T13:40:36;16.50;99.90
18335;DHT22;9293;49.524;10.964;2023-04-29T13:43:12;16.50;99.90
18335;DHT22;9293;49.524;10.964;2023-04-29T13:45:54;16.50;99.90
18335;DHT22;9293;49.524;10.964;2023-04-29T13:48:23;16.50;99.90
18335;DHT22;9293;49.524;10.964;2023-04-29T13:51:11;16.50;99.90
18335;DHT22;9293;49.524;10.964;2023-04-29T13:54:02;16.40;99.90
18335;DHT22;9293;49.524;10.964;2023-04-29T13:56:33;16.40;99.90
18335;DHT22;9293;49.524;10.964;2023-04-29T13:59:04;16.30;99.90
18335;DHT22;9293;49.524;10.964;2023-04-29T14:01:55;16.30;99.90
18335;DHT22;9293;49.524;10.964;2023-04-29T14:04:27;16.30;99.90
18335;DHT22;9293;49.524;10.964;2023-04-29T14:06:56;16.10;99.90
18335;DHT22;9293;49.524;10.964;2023-04-29T14:09:24;15.80;99.90
18335;DHT22;9293;49.524;10.964;2023-04-29T14:11:53;15.70;99.90
18335;DHT22;9293;49.524;10.964;2023-04-29T14:14:21;15.70;99.90
18335;DHT22;9293;49.524;10.964;2023-04-29T14:16:52;15.70;99.90
18335;DHT22;9293;49.524;10.964;2023-04-29T14:19:21;15.50;99.90
18335;DHT22;9293;49.524;10.964;2023-04-29T14:21:49;15.50;99.90
18335;DHT22;9293;49.524;10.964;2023-04-29T14:24:18;15.40;99.90
18335;DHT22;9293;49.524;10.964;2023-04-29T14:26:46;15.40;99.90
18335;DHT22;9293;49.524;10.964;2023-04-29T14:29:14;15.30;99.90
18335;DHT22;9293;49.524;10.964;2023-04-29T14:31:42;15.20;99.90
18335;DHT22;9293;49.524;10.964;2023-04-29T14:34:10;15.20;99.90
18335;DHT22;9293;49.524;10.964;2023-04-29T14:36:39;15.30;99.90
18335;DHT22;9293;49.524;10.964;2023-04-29T14:39:09;15.30;99.90
18335;DHT22;9293;49.524;10.964;2023-04-29T14:41:37;15.30;99.90
18335;DHT22;9293;49.524;10.964;2023-04-29T14:44:05;15.20;99.90
18335;DHT22;9293;49.524;10.964;2023-04-29T14:46:33;15.20;99.90
18335;DHT22;9293;49.524;10.964;2023-04-29T14:49:01;15.20;99.90
18335;DHT22;9293;49.524;10.964;2023-04-29T14:51:29;15.10;99.90
18335;DHT22;9293;49.524;10.964;2023-04-29T14:53:58;15.00;99.90
18335;DHT22;9293;49.524;10.964;2023-04-29T14:56:26;15.00;99.90
18335;DHT22;9293;49.524;10.964;2023-04-29T14:58:54;15.00;99.90
18335;DHT22;9293;49.524;10.964;2023-04-29T15:01:22;15.10;99.90
18335;DHT22;9293;49.524;10.964;2023-04-29T15:03:50;15.20;99.90
18335;DHT22;9293;49.524;10.964;2023-04-29T15:06:18;15.20;99.90
18335;DHT22;9293;49.524;10.964;2023-04-29T15:08:46;15.30;99.90
18335;DHT22;9293;49.524;10.964;2023-04-29T15:11:15;15.30;99.90
18335;DHT22;9293;49.524;10.964;2023-04-29T15:13:43;15.30;99.90
18335;DHT22;9293;49.524;10.964;2023-04-29T15:16:11;15.30;99.90
18335;DHT22;9293;49.524;10.964;2023-04-29T15:18:39;15.40;99.90
18335;DHT22;9293;49.524;10.964;2023-04-29T15:21:11;15.40;99.90
18335;DHT22;9293;49.524;10.964;2023-04-29T15:23:39;15.40;99.90
18335;DHT22;9293;49.524;10.964;2023-04-29T15:26:07;15.30;99.90
18335;DHT22;9293;49.524;10.964;2023-04-29T15:28:35;15.30;99.90
18335;DHT22;9293;49.524;10.964;2023-04-29T15:31:04;15.20;99.90
18335;DHT22;9293;49.524;10.964;2023-04-29T15:33:32;15.00;99.90
18335;DHT22;9293;49.524;10.964;2023-04-29T15:36:01;14.90;99.90
18335;DHT22;9293;49.524;10.964;2023-04-29T15:38:29;14.70;99.90
18335;DHT22;9293;49.524;10.964;2023-04-29T15:40:57;14.60;99.90
18335;DHT22;9293;49.524;10.964;2023-04-29T15:43:28;14.50;99.90
18335;DHT22;9293;49.524;10.964;2023-04-29T15:45:57;14.40;99.90
18335;DHT22;9293;49.524;10.964;2023-04-29T15:48:25;14.30;99.90
18335;DHT22;9293;49.524;10.964;2023-04-29T15:50:54;14.40;99.90
18335;DHT22;9293;49.524;10.964;2023-04-29T15:53:22;14.40;99.90
18335;DHT22;9293;49.524;10.964;2023-04-29T15:55:50;14.40;99.90
18335;DHT22;9293;49.524;10.964;2023-04-29T15:58:18;14.40;99.90
18335;DHT22;9293;49.524;10.964;2023-04-29T16:00:46;14.40;99.90
18335;DHT22;9293;49.524;10.964;2023-04-29T16:03:14;14.30;99.90
18335;DHT22;9293;49.524;10.964;2023-04-29T16:05:42;14.30;99.90
18335;DHT22;9293;49.524;10.964;2023-04-29T16:08:11;14.30;99.90
18335;DHT22;9293;49.524;10.964;2023-04-29T16:10:39;14.20;99.90
18335;DHT22;9293;49.524;10.964;2023-04-29T16:13:07;14.10;99.90
18335;DHT22;9293;49.524;10.964;2023-04-29T16:15:35;14.10;99.90
18335;DHT22;9293;49.524;10.964;2023-04-29T16:18:03;14.20;99.90
18335;DHT22;9293;49.524;10.964;2023-04-29T16:20:32;14.10;99.90
18335;DHT22;9293;49.524;10.964;2023-04-29T16:23:02;14.20;99.90